sensor_id;sensor_type;location;lat;lon;timestamp;P1;durP1;ratioP1;P2;durP2;ratioP2
2546;SDS011;1283;47.982;7.834;2023-06-26T00:01:56;7.38;;;5.00;;
2546;SDS011;1283;47.982;7.834;2023-06-26T00:04:22;11.45;;;4.95;;
2546;SDS011;1283;47.982;7.834;2023-06-26T00:06:49;7.82;;;5.03;;
2546;SDS011;1283;47.982;7.834;2023-06-26T00:09:15;8.80;;;4.50;;
2546;SDS011;1283;47.982;7.834;2023-06-26T00:11:42;7.13;;;4.90;;
2546;SDS011;1283;47.982;7.834;2023-06-26T00:14:09;7.25;;;4.35;;
2546;SDS011;1283;47.982;7.834;2023-06-26T00:16:36;7.03;;;4.82;;
2546;SDS011;1283;47.982;7.834;2023-06-26T00:19:02;7.20;;;4.68;;
2546;SDS011;1283;47.982;7.834;2023-06-26T00:21:29;8.07;;;5.03;;
2546;SDS011;1283;47.982;7.834;2023-06-26T00:23:55;6.95;;;4.82;;
2546;SDS011;1283;47.982;7.834;2023-06-26T00:26:22;7.28;;;4.68;;
2546;SDS011;1283;47.982;7.834;2023-06-26T00:28:49;6.25;;;4.47;;
2546;SDS011;1283;47.982;7.834;2023-06-26T00:31:16;7.65;;;5.03;;
2546;SDS011;1283;47.982;7.834;2023-06-26T00:33:43;8.00;;;4.78;;
2546;SDS011;1283;47.982;7.834;2023-06-26T00:36:09;6.13;;;4.45;;
2546;SDS011;1283;47.982;7.834;2023-06-26T00:38:36;6.97;;;4.68;;
2546;SDS011;1283;47.982;7.834;2023-06-26T00:41:02;8.27;;;4.68;;
2546;SDS011;1283;47.982;7.834;2023-06-26T00:43:30;8.45;;;5.40;;
2546;SDS011;1283;47.982;7.834;2023-06-26T00:45:56;7.68;;;4.75;;
2546;SDS011;1283;47.982;7.834;2023-06-26T00:48:24;8.00;;;4.85;;
2546;SDS011;1283;47.982;7.834;2023-06-26T00:50:50;8.90;;;5.22;;
2546;SDS011;1283;47.982;7.834;2023-06-26T00:53:17;7.30;;;5.20;;
2546;SDS011;1283;47.982;7.834;2023-06-26T00:55:44;9.77;;;5.32;;
2546;SDS011;1283;47.982;7.834;2023-06-26T00:58:10;7.43;;;4.78;;
2546;SDS011;1283;47.982;7.834;2023-06-26T01:00:37;7.75;;;4.68;;
2546;SDS011;1283;47.982;7.834;2023-06-26T01:03:03;8.73;;;4.70;;
2546;SDS011;1283;47.982;7.834;2023-06-26T01:05:31;6.32;;;4.60;;
2546;SDS011;1283;47.982;7.834;2023-06-26T01:07:57;6.55;;;4.20;;
2546;SDS011;1283;47.982;7.834;2023-06-26T01:10:24;11.43;;;4.97;;
2546;SDS011;1283;47.982;7.834;2023-06-26T01:12:52;8.70;;;4.88;;
2546;SDS011;1283;47.982;7.834;2023-06-26T01:15:19;17.50;;;5.93;;
2546;SDS011;1283;47.982;7.834;2023-06-26T01:17:45;9.07;;;5.47;;
2546;SDS011;1283;47.982;7.834;2023-06-26T01:20:12;12.25;;;5.03;;
2546;SDS011;1283;47.982;7.834;2023-06-26T01:22:42;7.72;;;4.95;;
2546;SDS011;1283;47.982;7.834;2023-06-26T01:25:15;10.57;;;5.53;;
2546;SDS011;1283;47.982;7.834;2023-06-26T01:27:48;7.68;;;5.13;;
2546;SDS011;1283;47.982;7.834;2023-06-26T01:30:15;10.82;;;5.28;;
2546;SDS011;1283;47.982;7.834;2023-06-26T01:32:42;7.65;;;4.85;;
2546;SDS011;1283;47.982;7.834;2023-06-26T01:35:09;8.55;;;5.05;;
2546;SDS011;1283;47.982;7.834;2023-06-26T01:37:37;7.03;;;4.60;;
2546;SDS011;1283;47.982;7.834;2023-06-26T01:40:04;7.97;;;5.30;;
2546;SDS011;1283;47.982;7.834;2023-06-26T01:42:31;9.70;;;5.95;;
2546;SDS011;1283;47.982;7.834;2023-06-26T01:44:59;10.93;;;4.95;;
2546;SDS011;1283;47.982;7.834;2023-06-26T01:47:30;9.73;;;5.10;;
2546;SDS011;1283;47.982;7.834;2023-06-26T01:50:00;7.97;;;5.35;;
2546;SDS011;1283;47.982;7.834;2023-06-26T01:52:31;7.68;;;5.18;;
2546;SDS011;1283;47.982;7.834;2023-06-26T01:55:03;11.52;;;5.50;;
2546;SDS011;1283;47.982;7.834;2023-06-26T01:57:32;7.40;;;4.90;;
2546;SDS011;1283;47.982;7.834;2023-06-26T02:00:00;6.65;;;4.80;;
2546;SDS011;1283;47.982;7.834;2023-06-26T02:02:28;6.47;;;4.57;;
2546;SDS011;1283;47.982;7.834;2023-06-26T02:04:54;6.72;;;4.70;;
2546;SDS011;1283;47.982;7.834;2023-06-26T02:07:21;7.88;;;5.13;;
2546;SDS011;1283;47.982;7.834;2023-06-26T02:09:47;6.93;;;4.57;;
2546;SDS011;1283;47.982;7.834;2023-06-26T02:12:14;8.23;;;5.30;;
2546;SDS011;1283;47.982;7.834;2023-06-26T02:14:40;10.32;;;4.60;;
2546;SDS011;1283;47.982;7.834;2023-06-26T02:17:08;6.95;;;4.65;;
2546;SDS011;1283;47.982;7.834;2023-06-26T02:19:34;12.98;;;5.07;;
2546;SDS011;1283;47.982;7.834;2023-06-26T02:22:01;6.57;;;4.70;;
2546;SDS011;1283;47.982;7.834;2023-06-26T02:24:28;8.52;;;4.95;;
2546;SDS011;1283;47.982;7.834;2023-06-26T02:26:55;6.85;;;4.93;;
2546;SDS011;1283;47.982;7.834;2023-06-26T02:29:21;9.95;;;5.50;;
2546;SDS011;1283;47.982;7.834;2023-06-26T02:31:48;8.43;;;5.32;;
2546;SDS011;1283;47.982;7.834;2023-06-26T02:34:16;9.05;;;5.72;;
2546;SDS011;1283;47.982;7.834;2023-06-26T02:36:42;7.35;;;5.25;;
2546;SDS011;1283;47.982;7.834;2023-06-26T02:39:09;8.20;;;5.13;;
2546;SDS011;1283;47.982;7.834;2023-06-26T02:41:35;6.32;;;4.30;;
2546;SDS011;1283;47.982;7.834;2023-06-26T02:44:02;8.05;;;5.15;;
2546;SDS011;1283;47.982;7.834;2023-06-26T02:46:28;7.03;;;4.88;;
2546;SDS011;1283;47.982;7.834;2023-06-26T02:48:55;6.85;;;4.80;;
2546;SDS011;1283;47.982;7.834;2023-06-26T02:51:23;8.45;;;5.28;;
2546;SDS011;1283;47.982;7.834;2023-06-26T02:53:49;7.82;;;5.25;;
2546;SDS011;1283;47.982;7.834;2023-06-26T02:56:15;9.52;;;5.22;;
2546;SDS011;1283;47.982;7.834;2023-06-26T02:58:42;6.65;;;4.82;;
2546;SDS011;1283;47.982;7.834;2023-06-26T03:01:08;7.25;;;4.35;;
2546;SDS011;1283;47.982;7.834;2023-06-26T03:03:35;6.80;;;5.00;;
2546;SDS011;1283;47.982;7.834;2023-06-26T03:06:05;6.60;;;4.70;;
2546;SDS011;1283;47.982;7.834;2023-06-26T03:08:33;8.25;;;5.07;;
2546;SDS011;1283;47.982;7.834;2023-06-26T03:11:00;7.95;;;5.30;;
2546;SDS011;1283;47.982;7.834;2023-06-26T03:13:27;9.05;;;4.80;;
2546;SDS011;1283;47.982;7.834;2023-06-26T03:15:53;7.40;;;5.10;;
2546;SDS011;1283;47.982;7.834;2023-06-26T03:18:20;9.25;;;5.20;;
2546;SDS011;1283;47.982;7.834;2023-06-26T03:20:46;8.48;;;5.18;;
2546;SDS011;1283;47.982;7.834;2023-06-26T03:23:13;10.02;;;5.47;;
2546;SDS011;1283;47.982;7.834;2023-06-26T03:25:41;7.90;;;4.75;;
2546;SDS011;1283;47.982;7.834;2023-06-26T03:28:07;7.20;;;4.70;;
2546;SDS011;1283;47.982;7.834;2023-06-26T03:30:33;7.10;;;4.80;;
2546;SDS011;1283;47.982;7.834;2023-06-26T03:33:00;7.05;;;5.10;;
2546;SDS011;1283;47.982;7.834;2023-06-26T03:35:26;12.75;;;4.80;;
2546;SDS011;1283;47.982;7.834;2023-06-26T03:37:53;6.53;;;4.63;;
2546;SDS011;1283;47.982;7.834;2023-06-26T03:40:19;10.85;;;5.30;;
2546;SDS011;1283;47.982;7.834;2023-06-26T03:42:47;9.75;;;5.90;;
2546;SDS011;1283;47.982;7.834;2023-06-26T03:45:13;9.82;;;5.03;;
2546;SDS011;1283;47.982;7.834;2023-06-26T03:47:40;7.35;;;5.03;;
2546;SDS011;1283;47.982;7.834;2023-06-26T03:50:07;8.52;;;4.60;;
2546;SDS011;1283;47.982;7.834;2023-06-26T03:52:33;10.30;;;4.97;;
2546;SDS011;1283;47.982;7.834;2023-06-26T03:55:00;7.97;;;5.05;;
2546;SDS011;1283;47.982;7.834;2023-06-26T03:57:27;9.50;;;5.47;;
2546;SDS011;1283;47.982;7.834;2023-06-26T03:59:55;7.57;;;5.35;;
2546;SDS011;1283;47.982;7.834;2023-06-26T04:02:22;10.05;;;5.55;;
2546;SDS011;1283;47.982;7.834;2023-06-26T04:04:48;8.20;;;5.45;;
2546;SDS011;1283;47.982;7.834;2023-06-26T04:07:15;7.88;;;4.78;;
2546;SDS011;1283;47.982;7.834;2023-06-26T04:09:41;8.73;;;5.60;;
2546;SDS011;1283;47.982;7.834;2023-06-26T04:12:08;9.13;;;4.95;;
2546;SDS011;1283;47.982;7.834;2023-06-26T04:14:35;9.70;;;5.38;;
2546;SDS011;1283;47.982;7.834;2023-06-26T04:17:03;9.20;;;5.43;;
2546;SDS011;1283;47.982;7.834;2023-06-26T04:19:29;8.30;;;5.32;;
2546;SDS011;1283;47.982;7.834;2023-06-26T04:21:56;9.10;;;5.35;;
2546;SDS011;1283;47.982;7.834;2023-06-26T04:24:22;7.80;;;5.35;;
2546;SDS011;1283;47.982;7.834;2023-06-26T04:26:49;9.50;;;5.00;;
2546;SDS011;1283;47.982;7.834;2023-06-26T04:29:15;10.68;;;4.60;;
2546;SDS011;1283;47.982;7.834;2023-06-26T04:31:42;6.82;;;4.97;;
2546;SDS011;1283;47.982;7.834;2023-06-26T04:34:12;8.85;;;4.72;;
2546;SDS011;1283;47.982;7.834;2023-06-26T04:36:39;6.53;;;4.55;;
2546;SDS011;1283;47.982;7.834;2023-06-26T04:39:05;10.10;;;4.75;;
2546;SDS011;1283;47.982;7.834;2023-06-26T04:41:32;7.82;;;4.70;;
2546;SDS011;1283;47.982;7.834;2023-06-26T04:43:58;6.00;;;4.68;;
2546;SDS011;1283;47.982;7.834;2023-06-26T04:46:24;11.55;;;5.07;;
2546;SDS011;1283;47.982;7.834;2023-06-26T04:48:53;9.63;;;4.72;;
2546;SDS011;1283;47.982;7.834;2023-06-26T04:51:20;8.30;;;5.30;;
2546;SDS011;1283;47.982;7.834;2023-06-26T04:53:47;8.85;;;4.97;;
2546;SDS011;1283;47.982;7.834;2023-06-26T04:56:13;7.72;;;5.20;;
2546;SDS011;1283;47.982;7.834;2023-06-26T04:58:40;11.80;;;4.75;;
2546;SDS011;1283;47.982;7.834;2023-06-26T05:01:06;9.48;;;5.20;;
2546;SDS011;1283;47.982;7.834;2023-06-26T05:03:33;8.55;;;4.93;;
2546;SDS011;1283;47.982;7.834;2023-06-26T05:06:00;8.02;;;5.43;;
2546;SDS011;1283;47.982;7.834;2023-06-26T05:08:28;6.50;;;4.70;;
2546;SDS011;1283;47.982;7.834;2023-06-26T05:10:54;7.65;;;5.45;;
2546;SDS011;1283;47.982;7.834;2023-06-26T05:13:23;6.88;;;4.90;;
2546;SDS011;1283;47.982;7.834;2023-06-26T05:15:49;5.78;;;4.57;;
2546;SDS011;1283;47.982;7.834;2023-06-26T05:18:16;15.40;;;4.95;;
2546;SDS011;1283;47.982;7.834;2023-06-26T05:20:43;6.25;;;4.32;;
2546;SDS011;1283;47.982;7.834;2023-06-26T05:23:10;7.47;;;5.10;;
2546;SDS011;1283;47.982;7.834;2023-06-26T05:25:39;6.72;;;4.53;;
2546;SDS011;1283;47.982;7.834;2023-06-26T05:28:06;10.52;;;5.40;;
2546;SDS011;1283;47.982;7.834;2023-06-26T05:30:35;8.30;;;5.30;;
2546;SDS011;1283;47.982;7.834;2023-06-26T05:33:02;7.95;;;4.85;;
2546;SDS011;1283;47.982;7.834;2023-06-26T05:35:31;11.00;;;5.10;;
2546;SDS011;1283;47.982;7.834;2023-06-26T05:37:57;5.93;;;4.78;;
2546;SDS011;1283;47.982;7.834;2023-06-26T05:40:25;7.97;;;4.80;;
2546;SDS011;1283;47.982;7.834;2023-06-26T05:42:53;9.00;;;4.65;;
2546;SDS011;1283;47.982;7.834;2023-06-26T05:45:20;6.00;;;4.45;;
2546;SDS011;1283;47.982;7.834;2023-06-26T05:47:46;7.20;;;4.85;;
2546;SDS011;1283;47.982;7.834;2023-06-26T05:50:15;8.90;;;4.53;;
2546;SDS011;1283;47.982;7.834;2023-06-26T05:52:43;9.35;;;4.53;;
2546;SDS011;1283;47.982;7.834;2023-06-26T05:55:10;7.97;;;5.05;;
2546;SDS011;1283;47.982;7.834;2023-06-26T05:57:38;8.85;;;4.90;;
2546;SDS011;1283;47.982;7.834;2023-06-26T06:00:08;9.75;;;4.40;;
2546;SDS011;1283;47.982;7.834;2023-06-26T06:02:36;9.65;;;4.78;;
2546;SDS011;1283;47.982;7.834;2023-06-26T06:05:02;10.07;;;4.57;;
2546;SDS011;1283;47.982;7.834;2023-06-26T06:07:29;5.53;;;4.93;;
2546;SDS011;1283;47.982;7.834;2023-06-26T06:09:55;8.98;;;4.95;;
2546;SDS011;1283;47.982;7.834;2023-06-26T06:12:22;10.45;;;4.80;;
2546;SDS011;1283;47.982;7.834;2023-06-26T06:14:48;11.23;;;5.05;;
2546;SDS011;1283;47.982;7.834;2023-06-26T06:17:16;7.18;;;4.47;;
2546;SDS011;1283;47.982;7.834;2023-06-26T06:19:42;5.90;;;4.28;;
2546;SDS011;1283;47.982;7.834;2023-06-26T06:22:11;7.75;;;4.60;;
2546;SDS011;1283;47.982;7.834;2023-06-26T06:24:37;9.05;;;4.88;;
2546;SDS011;1283;47.982;7.834;2023-06-26T06:27:03;13.95;;;6.28;;
2546;SDS011;1283;47.982;7.834;2023-06-26T06:29:30;7.93;;;4.82;;
2546;SDS011;1283;47.982;7.834;2023-06-26T06:31:56;8.43;;;4.72;;
2546;SDS011;1283;47.982;7.834;2023-06-26T06:34:24;10.60;;;4.20;;
2546;SDS011;1283;47.982;7.834;2023-06-26T06:36:51;10.55;;;4.65;;
2546;SDS011;1283;47.982;7.834;2023-06-26T06:39:17;8.95;;;4.57;;
2546;SDS011;1283;47.982;7.834;2023-06-26T06:41:43;7.18;;;4.50;;
2546;SDS011;1283;47.982;7.834;2023-06-26T06:44:10;7.38;;;5.22;;
2546;SDS011;1283;47.982;7.834;2023-06-26T06:46:36;5.43;;;4.47;;
2546;SDS011;1283;47.982;7.834;2023-06-26T06:49:03;14.80;;;4.40;;
2546;SDS011;1283;47.982;7.834;2023-06-26T06:51:30;7.28;;;4.95;;
2546;SDS011;1283;47.982;7.834;2023-06-26T06:53:57;10.63;;;4.47;;
2546;SDS011;1283;47.982;7.834;2023-06-26T06:56:23;8.40;;;4.93;;
2546;SDS011;1283;47.982;7.834;2023-06-26T06:58:50;6.57;;;4.68;;
2546;SDS011;1283;47.982;7.834;2023-06-26T07:01:16;7.57;;;4.72;;
2546;SDS011;1283;47.982;7.834;2023-06-26T07:03:43;6.18;;;4.80;;
2546;SDS011;1283;47.982;7.834;2023-06-26T07:06:09;7.13;;;4.38;;
2546;SDS011;1283;47.982;7.834;2023-06-26T07:08:37;6.93;;;4.63;;
2546;SDS011;1283;47.982;7.834;2023-06-26T07:11:03;9.23;;;5.00;;
2546;SDS011;1283;47.982;7.834;2023-06-26T07:13:30;6.57;;;4.80;;
2546;SDS011;1283;47.982;7.834;2023-06-26T07:15:56;8.45;;;4.68;;
2546;SDS011;1283;47.982;7.834;2023-06-26T07:18:23;7.07;;;5.03;;
2546;SDS011;1283;47.982;7.834;2023-06-26T07:20:49;9.10;;;5.00;;
2546;SDS011;1283;47.982;7.834;2023-06-26T07:23:16;8.88;;;4.95;;
2546;SDS011;1283;47.982;7.834;2023-06-26T07:25:43;10.57;;;4.50;;
2546;SDS011;1283;47.982;7.834;2023-06-26T07:28:10;8.38;;;4.30;;
2546;SDS011;1283;47.982;7.834;2023-06-26T07:30:37;7.38;;;4.80;;
2546;SDS011;1283;47.982;7.834;2023-06-26T07:33:03;5.47;;;4.38;;
2546;SDS011;1283;47.982;7.834;2023-06-26T07:35:30;5.97;;;4.60;;
2546;SDS011;1283;47.982;7.834;2023-06-26T07:37:56;6.47;;;4.55;;
2546;SDS011;1283;47.982;7.834;2023-06-26T07:40:23;10.90;;;4.35;;
2546;SDS011;1283;47.982;7.834;2023-06-26T07:42:50;9.40;;;5.10;;
2546;SDS011;1283;47.982;7.834;2023-06-26T07:45:18;7.53;;;4.65;;
2546;SDS011;1283;47.982;7.834;2023-06-26T07:47:45;7.32;;;4.93;;
2546;SDS011;1283;47.982;7.834;2023-06-26T07:50:11;8.13;;;4.47;;
2546;SDS011;1283;47.982;7.834;2023-06-26T07:52:40;7.80;;;4.40;;
2546;SDS011;1283;47.982;7.834;2023-06-26T07:55:07;7.70;;;4.60;;
2546;SDS011;1283;47.982;7.834;2023-06-26T07:57:34;6.07;;;4.30;;
2546;SDS011;1283;47.982;7.834;2023-06-26T08:00:01;10.82;;;4.55;;
2546;SDS011;1283;47.982;7.834;2023-06-26T08:02:31;6.82;;;4.60;;
2546;SDS011;1283;47.982;7.834;2023-06-26T08:04:58;9.23;;;4.95;;
2546;SDS011;1283;47.982;7.834;2023-06-26T08:07:24;6.93;;;4.35;;
2546;SDS011;1283;47.982;7.834;2023-06-26T08:09:50;7.25;;;4.28;;
2546;SDS011;1283;47.982;7.834;2023-06-26T08:12:17;6.43;;;4.47;;
2546;SDS011;1283;47.982;7.834;2023-06-26T08:14:43;8.15;;;4.82;;
2546;SDS011;1283;47.982;7.834;2023-06-26T08:17:11;9.07;;;4.75;;
2546;SDS011;1283;47.982;7.834;2023-06-26T08:19:38;11.98;;;4.90;;
2546;SDS011;1283;47.982;7.834;2023-06-26T08:22:05;8.68;;;4.97;;
2546;SDS011;1283;47.982;7.834;2023-06-26T08:24:31;7.65;;;4.47;;
2546;SDS011;1283;47.982;7.834;2023-06-26T08:26:57;13.40;;;4.78;;
2546;SDS011;1283;47.982;7.834;2023-06-26T08:29:24;7.93;;;5.20;;
2546;SDS011;1283;47.982;7.834;2023-06-26T08:31:50;8.68;;;5.35;;
2546;SDS011;1283;47.982;7.834;2023-06-26T08:34:18;9.57;;;4.88;;
2546;SDS011;1283;47.982;7.834;2023-06-26T08:36:44;6.47;;;5.25;;
2546;SDS011;1283;47.982;7.834;2023-06-26T08:39:11;7.82;;;5.78;;
2546;SDS011;1283;47.982;7.834;2023-06-26T08:41:37;6.78;;;5.28;;
2546;SDS011;1283;47.982;7.834;2023-06-26T08:44:04;6.88;;;5.07;;
2546;SDS011;1283;47.982;7.834;2023-06-26T08:46:31;10.25;;;5.20;;
2546;SDS011;1283;47.982;7.834;2023-06-26T08:49:00;8.45;;;5.28;;
2546;SDS011;1283;47.982;7.834;2023-06-26T08:51:29;9.35;;;5.30;;
2546;SDS011;1283;47.982;7.834;2023-06-26T08:53:56;11.52;;;5.30;;
2546;SDS011;1283;47.982;7.834;2023-06-26T08:56:24;11.32;;;6.20;;
2546;SDS011;1283;47.982;7.834;2023-06-26T08:58:51;12.13;;;5.85;;
2546;SDS011;1283;47.982;7.834;2023-06-26T09:01:18;10.23;;;5.97;;
2546;SDS011;1283;47.982;7.834;2023-06-26T09:03:45;8.68;;;5.45;;
2546;SDS011;1283;47.982;7.834;2023-06-26T09:06:11;9.00;;;5.53;;
2546;SDS011;1283;47.982;7.834;2023-06-26T09:08:39;8.40;;;5.57;;
2546;SDS011;1283;47.982;7.834;2023-06-26T09:11:05;14.07;;;5.47;;
2546;SDS011;1283;47.982;7.834;2023-06-26T09:13:32;8.07;;;5.65;;
2546;SDS011;1283;47.982;7.834;2023-06-26T09:15:58;6.93;;;5.22;;
2546;SDS011;1283;47.982;7.834;2023-06-26T09:18:25;6.65;;;5.20;;
2546;SDS011;1283;47.982;7.834;2023-06-26T09:20:51;14.75;;;5.32;;
2546;SDS011;1283;47.982;7.834;2023-06-26T09:23:18;17.02;;;5.53;;
2546;SDS011;1283;47.982;7.834;2023-06-26T09:25:46;13.25;;;5.32;;
2546;SDS011;1283;47.982;7.834;2023-06-26T09:28:13;11.52;;;6.05;;
2546;SDS011;1283;47.982;7.834;2023-06-26T09:30:40;8.25;;;5.90;;
2546;SDS011;1283;47.982;7.834;2023-06-26T09:33:13;9.93;;;6.10;;
2546;SDS011;1283;47.982;7.834;2023-06-26T09:35:40;11.20;;;5.68;;
2546;SDS011;1283;47.982;7.834;2023-06-26T09:38:06;13.10;;;5.80;;
2546;SDS011;1283;47.982;7.834;2023-06-26T09:40:33;9.85;;;6.00;;
2546;SDS011;1283;47.982;7.834;2023-06-26T09:43:03;8.43;;;5.57;;
2546;SDS011;1283;47.982;7.834;2023-06-26T09:45:30;9.45;;;5.90;;
2546;SDS011;1283;47.982;7.834;2023-06-26T09:47:59;9.68;;;6.70;;
2546;SDS011;1283;47.982;7.834;2023-06-26T09:50:26;10.20;;;5.80;;
2546;SDS011;1283;47.982;7.834;2023-06-26T09:52:52;16.05;;;7.22;;
2546;SDS011;1283;47.982;7.834;2023-06-26T09:55:19;7.85;;;6.30;;
2546;SDS011;1283;47.982;7.834;2023-06-26T09:57:46;9.05;;;6.60;;
2546;SDS011;1283;47.982;7.834;2023-06-26T10:02:43;8.50;;;6.18;;
2546;SDS011;1283;47.982;7.834;2023-06-26T10:05:10;9.90;;;6.70;;
2546;SDS011;1283;47.982;7.834;2023-06-26T10:07:36;9.27;;;5.93;;
2546;SDS011;1283;47.982;7.834;2023-06-26T10:10:03;12.05;;;6.28;;
2546;SDS011;1283;47.982;7.834;2023-06-26T10:12:32;7.13;;;5.85;;
2546;SDS011;1283;47.982;7.834;2023-06-26T10:14:58;10.52;;;5.82;;
2546;SDS011;1283;47.982;7.834;2023-06-26T10:17:28;8.57;;;5.90;;
2546;SDS011;1283;47.982;7.834;2023-06-26T10:19:54;9.50;;;6.18;;
2546;SDS011;1283;47.982;7.834;2023-06-26T10:22:21;12.18;;;6.30;;
2546;SDS011;1283;47.982;7.834;2023-06-26T10:24:51;13.88;;;5.88;;
2546;SDS011;1283;47.982;7.834;2023-06-26T10:27:18;11.90;;;6.20;;
2546;SDS011;1283;47.982;7.834;2023-06-26T10:29:46;10.05;;;6.18;;
2546;SDS011;1283;47.982;7.834;2023-06-26T10:32:14;12.65;;;6.00;;
2546;SDS011;1283;47.982;7.834;2023-06-26T10:34:43;13.35;;;6.05;;
2546;SDS011;1283;47.982;7.834;2023-06-26T10:37:09;10.88;;;5.88;;
2546;SDS011;1283;47.982;7.834;2023-06-26T10:39:47;10.65;;;5.72;;
2546;SDS011;1283;47.982;7.834;2023-06-26T10:42:15;18.15;;;6.10;;
2546;SDS011;1283;47.982;7.834;2023-06-26T10:44:42;13.30;;;6.75;;
2546;SDS011;1283;47.982;7.834;2023-06-26T10:47:09;11.60;;;6.30;;
2546;SDS011;1283;47.982;7.834;2023-06-26T10:49:36;13.07;;;6.57;;
2546;SDS011;1283;47.982;7.834;2023-06-26T10:52:06;10.85;;;6.60;;
2546;SDS011;1283;47.982;7.834;2023-06-26T10:54:33;16.65;;;6.22;;
2546;SDS011;1283;47.982;7.834;2023-06-26T10:56:59;11.15;;;6.45;;
2546;SDS011;1283;47.982;7.834;2023-06-26T10:59:28;9.70;;;6.38;;
2546;SDS011;1283;47.982;7.834;2023-06-26T11:01:57;10.40;;;6.15;;
2546;SDS011;1283;47.982;7.834;2023-06-26T11:04:37;9.02;;;6.22;;
2546;SDS011;1283;47.982;7.834;2023-06-26T11:07:18;14.38;;;6.40;;
2546;SDS011;1283;47.982;7.834;2023-06-26T11:09:55;14.05;;;5.68;;
2546;SDS011;1283;47.982;7.834;2023-06-26T11:12:38;12.43;;;6.32;;
2546;SDS011;1283;47.982;7.834;2023-06-26T11:15:07;11.30;;;7.00;;
2546;SDS011;1283;47.982;7.834;2023-06-26T11:17:34;8.45;;;6.28;;
2546;SDS011;1283;47.982;7.834;2023-06-26T11:20:01;9.90;;;6.38;;
2546;SDS011;1283;47.982;7.834;2023-06-26T11:22:31;13.80;;;6.05;;
2546;SDS011;1283;47.982;7.834;2023-06-26T11:24:59;16.88;;;6.25;;
2546;SDS011;1283;47.982;7.834;2023-06-26T11:27:30;17.40;;;6.60;;
2546;SDS011;1283;47.982;7.834;2023-06-26T11:29:57;9.65;;;6.15;;
2546;SDS011;1283;47.982;7.834;2023-06-26T11:32:25;12.85;;;6.65;;
2546;SDS011;1283;47.982;7.834;2023-06-26T11:34:52;11.00;;;6.30;;
2546;SDS011;1283;47.982;7.834;2023-06-26T11:37:21;8.18;;;6.40;;
2546;SDS011;1283;47.982;7.834;2023-06-26T11:39:49;9.80;;;6.28;;
2546;SDS011;1283;47.982;7.834;2023-06-26T11:42:16;14.50;;;6.68;;
2546;SDS011;1283;47.982;7.834;2023-06-26T11:44:43;10.07;;;7.18;;
2546;SDS011;1283;47.982;7.834;2023-06-26T11:47:13;8.73;;;6.32;;
2546;SDS011;1283;47.982;7.834;2023-06-26T11:49:41;9.63;;;6.50;;
2546;SDS011;1283;47.982;7.834;2023-06-26T11:52:08;11.27;;;6.65;;
2546;SDS011;1283;47.982;7.834;2023-06-26T11:54:35;11.18;;;6.68;;
2546;SDS011;1283;47.982;7.834;2023-06-26T11:57:04;14.95;;;7.07;;
2546;SDS011;1283;47.982;7.834;2023-06-26T11:59:34;8.25;;;6.70;;
2546;SDS011;1283;47.982;7.834;2023-06-26T12:02:04;7.55;;;5.82;;
2546;SDS011;1283;47.982;7.834;2023-06-26T12:04:31;10.80;;;5.32;;
2546;SDS011;1283;47.982;7.834;2023-06-26T12:06:59;8.00;;;5.10;;
2546;SDS011;1283;47.982;7.834;2023-06-26T12:09:25;10.13;;;5.78;;
2546;SDS011;1283;47.982;7.834;2023-06-26T12:11:53;13.00;;;5.90;;
2546;SDS011;1283;47.982;7.834;2023-06-26T12:14:22;11.02;;;5.70;;
2546;SDS011;1283;47.982;7.834;2023-06-26T12:16:49;10.60;;;5.72;;
2546;SDS011;1283;47.982;7.834;2023-06-26T12:19:15;15.02;;;5.85;;
2546;SDS011;1283;47.982;7.834;2023-06-26T12:21:45;14.50;;;5.72;;
2546;SDS011;1283;47.982;7.834;2023-06-26T12:24:14;9.90;;;5.53;;
2546;SDS011;1283;47.982;7.834;2023-06-26T12:26:41;7.72;;;5.13;;
2546;SDS011;1283;47.982;7.834;2023-06-26T12:29:09;14.60;;;6.07;;
2546;SDS011;1283;47.982;7.834;2023-06-26T12:31:40;13.93;;;5.53;;
2546;SDS011;1283;47.982;7.834;2023-06-26T12:34:11;9.43;;;5.43;;
2546;SDS011;1283;47.982;7.834;2023-06-26T12:36:40;9.10;;;4.97;;
2546;SDS011;1283;47.982;7.834;2023-06-26T12:39:09;7.82;;;5.15;;
2546;SDS011;1283;47.982;7.834;2023-06-26T12:41:36;10.90;;;5.13;;
2546;SDS011;1283;47.982;7.834;2023-06-26T12:44:15;7.15;;;5.25;;
2546;SDS011;1283;47.982;7.834;2023-06-26T12:46:44;8.80;;;5.15;;
2546;SDS011;1283;47.982;7.834;2023-06-26T12:49:12;10.57;;;5.50;;
2546;SDS011;1283;47.982;7.834;2023-06-26T12:51:38;13.48;;;5.60;;
2546;SDS011;1283;47.982;7.834;2023-06-26T12:54:06;8.52;;;5.07;;
2546;SDS011;1283;47.982;7.834;2023-06-26T12:56:32;7.03;;;4.72;;
2546;SDS011;1283;47.982;7.834;2023-06-26T12:58:59;13.27;;;5.30;;
2546;SDS011;1283;47.982;7.834;2023-06-26T13:01:26;10.38;;;4.93;;
2546;SDS011;1283;47.982;7.834;2023-06-26T13:03:54;9.32;;;4.70;;
2546;SDS011;1283;47.982;7.834;2023-06-26T13:06:20;21.67;;;4.72;;
2546;SDS011;1283;47.982;7.834;2023-06-26T13:08:47;8.65;;;5.10;;
2546;SDS011;1283;47.982;7.834;2023-06-26T13:11:13;8.90;;;4.43;;
2546;SDS011;1283;47.982;7.834;2023-06-26T13:13:41;11.23;;;4.38;;
2546;SDS011;1283;47.982;7.834;2023-06-26T13:16:08;8.48;;;4.57;;
2546;SDS011;1283;47.982;7.834;2023-06-26T13:18:34;8.40;;;4.50;;
2546;SDS011;1283;47.982;7.834;2023-06-26T13:21:02;8.48;;;4.43;;
2546;SDS011;1283;47.982;7.834;2023-06-26T13:23:29;7.35;;;5.30;;
2546;SDS011;1283;47.982;7.834;2023-06-26T13:25:55;10.68;;;4.70;;
2546;SDS011;1283;47.982;7.834;2023-06-26T13:28:21;6.97;;;4.55;;
2546;SDS011;1283;47.982;7.834;2023-06-26T13:30:48;7.35;;;4.20;;
2546;SDS011;1283;47.982;7.834;2023-06-26T13:33:14;5.28;;;4.03;;
2546;SDS011;1283;47.982;7.834;2023-06-26T13:35:41;7.75;;;4.07;;
2546;SDS011;1283;47.982;7.834;2023-06-26T13:38:09;8.07;;;3.88;;
2546;SDS011;1283;47.982;7.834;2023-06-26T13:40:35;8.70;;;4.20;;
2546;SDS011;1283;47.982;7.834;2023-06-26T13:43:01;10.98;;;4.15;;
2546;SDS011;1283;47.982;7.834;2023-06-26T13:45:28;7.20;;;4.20;;
2546;SDS011;1283;47.982;7.834;2023-06-26T13:47:56;7.63;;;3.75;;
2546;SDS011;1283;47.982;7.834;2023-06-26T13:50:22;9.63;;;4.57;;
2546;SDS011;1283;47.982;7.834;2023-06-26T13:52:48;10.77;;;4.38;;
2546;SDS011;1283;47.982;7.834;2023-06-26T13:55:16;9.57;;;3.72;;
2546;SDS011;1283;47.982;7.834;2023-06-26T13:57:43;6.97;;;4.03;;
2546;SDS011;1283;47.982;7.834;2023-06-26T14:00:10;16.08;;;4.70;;
2546;SDS011;1283;47.982;7.834;2023-06-26T14:02:38;6.63;;;4.32;;
2546;SDS011;1283;47.982;7.834;2023-06-26T14:05:04;11.38;;;4.13;;
2546;SDS011;1283;47.982;7.834;2023-06-26T14:07:31;5.22;;;3.45;;
2546;SDS011;1283;47.982;7.834;2023-06-26T14:09:58;8.07;;;3.88;;
2546;SDS011;1283;47.982;7.834;2023-06-26T14:12:25;8.07;;;3.85;;
2546;SDS011;1283;47.982;7.834;2023-06-26T14:14:52;6.80;;;3.67;;
2546;SDS011;1283;47.982;7.834;2023-06-26T14:17:18;11.45;;;3.58;;
2546;SDS011;1283;47.982;7.834;2023-06-26T14:19:45;5.40;;;3.50;;
2546;SDS011;1283;47.982;7.834;2023-06-26T14:22:11;5.03;;;3.20;;
2546;SDS011;1283;47.982;7.834;2023-06-26T14:24:38;7.60;;;3.72;;
2546;SDS011;1283;47.982;7.834;2023-06-26T14:27:04;9.63;;;3.58;;
2546;SDS011;1283;47.982;7.834;2023-06-26T14:29:32;11.20;;;3.30;;
2546;SDS011;1283;47.982;7.834;2023-06-26T14:31:58;9.15;;;3.80;;
2546;SDS011;1283;47.982;7.834;2023-06-26T14:34:25;6.25;;;3.67;;
2546;SDS011;1283;47.982;7.834;2023-06-26T14:36:51;6.32;;;3.08;;
2546;SDS011;1283;47.982;7.834;2023-06-26T14:39:18;5.88;;;2.88;;
2546;SDS011;1283;47.982;7.834;2023-06-26T14:41:44;3.85;;;2.60;;
2546;SDS011;1283;47.982;7.834;2023-06-26T14:44:12;7.55;;;2.85;;
2546;SDS011;1283;47.982;7.834;2023-06-26T14:46:40;8.40;;;2.70;;
2546;SDS011;1283;47.982;7.834;2023-06-26T14:49:06;3.83;;;2.72;;
2546;SDS011;1283;47.982;7.834;2023-06-26T14:51:33;5.20;;;3.08;;
2546;SDS011;1283;47.982;7.834;2023-06-26T14:53:59;5.60;;;2.97;;
2546;SDS011;1283;47.982;7.834;2023-06-26T14:56:26;6.47;;;3.17;;
2546;SDS011;1283;47.982;7.834;2023-06-26T14:58:52;5.03;;;3.00;;
2546;SDS011;1283;47.982;7.834;2023-06-26T15:01:19;7.07;;;3.20;;
2546;SDS011;1283;47.982;7.834;2023-06-26T15:03:47;4.22;;;2.90;;
2546;SDS011;1283;47.982;7.834;2023-06-26T15:06:13;7.68;;;3.10;;
2546;SDS011;1283;47.982;7.834;2023-06-26T15:08:40;5.93;;;3.10;;
2546;SDS011;1283;47.982;7.834;2023-06-26T15:11:06;5.97;;;3.20;;
2546;SDS011;1283;47.982;7.834;2023-06-26T15:13:33;8.35;;;3.05;;
2546;SDS011;1283;47.982;7.834;2023-06-26T15:15:59;6.70;;;3.35;;